Date,TemperatureHighF,TemperatureAvgF,TemperatureLowF,DewpointHighF,DewpointAvgF,DewpointLowF,HumidityHigh,HumidityAvg,HumidityLow,PressureMaxIn,PressureMinIn,WindSpeedMaxMPH,WindSpeedAvgMPH,GustSpeedMaxMPH,PrecipitationSumIn
2014-1-1,53,44,35,43,36,-100,91,75,49,30.38,30.11,3,0,7,0.00
2014-1-2,52,48,45,52,47,-100,99,96,87,30.11,29.50,14,1,23,0.52
2014-1-3,51,36,27,50,22,13,96,57,37,30.42,29.55,18,9,32,0.00
2014-1-4,50,35,24,39,26,-100,88,72,62,30.48,30.22,8,3,12,0.00
2014-1-5,65,57,41,63,55,38,100,94,85,30.22,29.80,7,2,14,0.19
2014-1-6,67,55,31,65,48,7,100,81,35,30.07,29.63,22,9,41,0.14
2014-1-7,31,22,16,11,2,-5,65,41,32,30.49,30.07,16,7,27,0.00
2014-1-8,43,30,20,21,13,7,72,52,26,30.59,30.46,8,1,12,0.00
2014-1-9,56,42,28,39,29,-100,77,62,46,30.52,30.41,7,3,13,0.00
2014-1-10,70,58,44,67,51,-100,99,83,68,30.41,30.06,10,2,20,0.12
2014-1-11,70,64,57,69,63,56,99,97,82,30.06,29.61,20,8,33,0.48
2014-1-12,59,52,41,57,41,-100,97,70,38,30.16,29.64,15,6,23,0.01
2014-1-13,64,50,36,52,43,34,95,79,51,30.18,29.95,11,2,17,0.01
2014-1-14,62,56,43,62,55,42,99,95,89,29.95,29.70,18,3,31,0.41
2014-1-15,59,38,36,52,21,-100,100,78,54,29.95,29.81,6,0,11,0.02
2014-1-16,46,38,31,43,30,-100,95,84,75,30.04,29.81,13,4,19,0.00
2014-1-17,55,45,30,47,35,26,97,70,37,30.06,29.81,12,5,22,0.00
2014-1-18,54,40,30,48,24,-100,86,56,38,30.04,29.78,15,7,28,0.08
2014-1-19,54,43,30,34,28,21,75,57,43,30.02,29.87,13,4,20,0.00
2014-1-20,64,50,41,43,34,30,78,59,29,29.92,29.76,11,5,18,0.00
2014-1-21,65,51,31,48,39,27,90,66,36,29.81,29.44,16,7,28,0.08
2014-1-22,34,28,23,27,20,17,85,73,50,30.09,29.69,13,5,27,0.00
2014-1-23,40,28,21,19,8,-100,84,56,33,30.32,30.08,11,2,21,0.00
2014-1-24,30,22,17,18,-5,-100,70,38,30,30.53,30.30,13,6,23,0.00
2014-1-25,47,33,17,31,9,-100,70,47,32,30.30,29.64,15,6,29,0.00
2014-1-26,50,40,30,37,22,-100,72,55,38,29.98,29.80,12,5,21,0.00
2014-1-27,65,52,45,45,37,-100,82,59,37,29.96,29.76,16,6,26,0.00
2014-1-28,46,30,21,34,21,15,92,69,50,30.24,29.96,15,9,24,0.00
2014-1-29,25,22,17,19,16,14,92,80,66,30.33,30.05,10,4,19,0.00
2014-1-30,33,25,21,31,8,-100,93,69,70,30.36,30.15,9,3,13,0.00
2014-1-31,55,39,31,36,31,23,95,77,36,30.20,30.10,5,1,12,0.68